Aérodrome :
LOGIN :

S'inscrire | Disclaimer

   EN    FR    IT 

 










Légende :    VFR   VFR Marginal   IFR   IFR Intensif   IFR Très Intensif
Visi : 
Plafond : 
>= 8 km
>= 3000ft
5 à 8 km
1000 à 3000 ft
1500m à 5 km
500 à 1000 ft
800 à 1500m
200 à 500 ft
< 800m
< 200 ft
Symboles :   Orages  Brouillard  Fortes neiges  Fortes précipitations  Vent > 20 kt
SIGMETs :   Divers  Orages  Givrage  Turbulence  Onde Orograph.  Cendres Volcan.






- Altitude de l'aérodrome : 479 ft
- Code IATA : DOL


LFRG - Deauville

DERNIER METAR :
  • 150700Z AUTO 21012KT 9999 OVC043 07/03 Q1000 TEMPO 24018G28KT

METARs EXPIRÉS :
  • 150630Z AUTO 21010KT 180V240 9999 FEW030 BKN037 BKN045 07/04 Q1000 TEMPO 24018G28KT
  • 150600Z AUTO 21010KT 9999 FEW025 SCT034 BKN041 07/04 Q1000 TEMPO 24018G28KT
  • 150530Z AUTO 24009KT 9999 BKN044 06/04 Q0999 TEMPO 24018G28KT
  • 150500Z AUTO 23011KT 9999 FEW043 SCT090 OVC140 07/04 Q0999
  • 150430Z AUTO 25013G24KT 9999 FEW038/// BKN045/// BKN054/// ///TCU 07/04 Q0998

TAF TAF LFRG
Valide du 15 à 06h jusqu'au 15 à 15h UTC


150500Z 1506/1515 24013KT 9999 BKN035
TEMPO 1506/1512 24018G28KT
ATIS : +33 2 31 65 65 36



MET'MAP, la Météo Aéronautique d'un coup d'oeil ! - Copyright ORBIFLY Décembre 2007 - Disclaimer

ORBIFLY MET'MAP TEAM :

Programmation & Développement : Alexandra Zaïnal
Sur une idée originale de : Baudouin d'Aumeries
Assistance à la programmation : Marc-Olivier Méhu
Soutien technique & logistique : Manuel Goepfert

Contact : metmap@orbifly.com




SOURCES & CREDITS :

   NOAA